Time;durP1;ratioP1;P1;durP2;ratioP2;P2;SDS_P1;SDS_P2;PMS_P1;PMS_P2;Temp;Humidity;BMP_temperature;BMP_pressure;BME280_temperature;BME280_humidity;BME280_pressure;Samples;Min_cycle;Max_cycle;Signal;HPM_P1;HPM_P2
2023/03/14 00:01:40;;;;;;;16.85;11.27;;;11.70;68.70;;;;;;5092423;28;20025;-16
2023/03/14 00:04:06;;;;;;;19.63;12.25;;;11.70;68.40;;;;;;5092360;28;20024;-15
2023/03/14 00:06:31;;;;;;;15.90;10.23;;;11.70;70.00;;;;;;5092365;28;20031;-15
2023/03/14 00:08:57;;;;;;;17.95;10.50;;;11.80;68.40;;;;;;5091945;28;20035;-16
2023/03/14 00:11:23;;;;;;;19.38;11.63;;;11.80;68.30;;;;;;5092166;28;20040;-13
2023/03/14 00:13:52;;;;;;;19.20;11.27;;;11.80;69.90;;;;;;5092674;28;20114;-13
2023/03/14 00:16:18;;;;;;;18.73;11.35;;;11.80;69.30;;;;;;5092372;28;20024;-14
2023/03/14 00:18:44;;;;;;;15.50;10.00;;;11.70;70.30;;;;;;5092173;28;20115;-15
2023/03/14 00:21:11;;;;;;;18.88;10.85;;;11.70;69.50;;;;;;5092486;28;20389;-13
2023/03/14 00:23:40;;;;;;;20.42;12.45;;;11.60;69.70;;;;;;5092129;28;20032;-14
2023/03/14 00:26:11;;;;;;;18.05;10.40;;;11.60;71.20;;;;;;5092206;28;20328;-13
2023/03/14 00:28:38;;;;;;;19.67;11.63;;;11.60;69.80;;;;;;5092666;28;20050;-14
2023/03/14 00:31:09;;;;;;;15.73;10.55;;;11.50;71.00;;;;;;5092363;28;20040;-13
2023/03/14 00:33:35;;;;;;;16.95;10.27;;;11.50;69.90;;;;;;5092817;28;20144;-15
2023/03/14 00:36:08;;;;;;;17.20;10.55;;;11.50;70.00;;;;;;5092079;28;20027;-12
2023/03/14 00:38:35;;;;;;;20.13;11.87;;;11.50;70.00;;;;;;5092133;28;20028;-16
2023/03/14 00:41:10;;;;;;;19.20;10.23;;;11.50;70.20;;;;;;5093547;28;20029;-16
2023/03/14 00:43:36;;;;;;;15.15;9.90;;;11.50;69.50;;;;;;5096177;28;20058;-13
2023/03/14 00:46:03;;;;;;;18.77;11.30;;;11.50;69.80;;;;;;5096143;28;20032;-17
2023/03/14 00:48:28;;;;;;;24.88;12.60;;;11.60;69.20;;;;;;5095895;28;20099;-15
2023/03/14 00:50:54;;;;;;;18.50;12.13;;;11.60;69.50;;;;;;5095389;28;20111;-15
2023/03/14 00:53:20;;;;;;;17.05;11.73;;;11.60;69.80;;;;;;5095987;28;20024;-13
2023/03/14 00:55:46;;;;;;;17.02;11.35;;;11.50;70.30;;;;;;5095613;28;20383;-15
2023/03/14 00:58:14;;;;;;;16.60;11.25;;;11.50;69.20;;;;;;5095900;28;20416;-15
2023/03/14 01:00:40;;;;;;;17.33;11.38;;;11.50;69.20;;;;;;5095423;28;20024;-16
2023/03/14 01:03:07;;;;;;;23.77;13.77;;;11.50;69.20;;;;;;5095968;28;20024;-15
2023/03/14 01:05:33;;;;;;;21.27;13.43;;;11.50;71.40;;;;;;5095389;28;20027;-16
2023/03/14 01:07:59;;;;;;;20.83;12.15;;;11.50;71.20;;;;;;5095812;28;20479;-17
2023/03/14 01:10:25;;;;;;;17.67;12.05;;;11.40;70.90;;;;;;5095227;28;20114;-14
2023/03/14 01:12:50;;;;;;;18.65;11.13;;;11.40;70.40;;;;;;5095218;28;20085;-16
2023/03/14 01:15:16;;;;;;;21.52;12.75;;;11.40;69.80;;;;;;5178981;22;20040;-17
2023/03/14 01:17:42;;;;;;;18.08;12.45;;;11.40;70.40;;;;;;5077038;28;20016;-17
2023/03/14 01:20:12;;;;;;;19.38;11.45;;;11.50;70.10;;;;;;5076778;28;20019;-16
2023/03/14 01:22:39;;;;;;;19.60;11.23;;;11.40;70.10;;;;;;5094839;28;20028;-18
2023/03/14 01:25:10;;;;;;;21.95;14.32;;;11.40;70.40;;;;;;5094877;28;20080;-17
2023/03/14 01:27:36;;;;;;;20.00;12.35;;;11.40;71.50;;;;;;5095116;28;20077;-17
2023/03/14 01:30:03;;;;;;;19.08;11.57;;;11.40;70.70;;;;;;5094850;28;20079;-17
2023/03/14 01:32:29;;;;;;;20.77;12.30;;;11.40;70.40;;;;;;5094841;28;20032;-16
2023/03/14 01:34:56;;;;;;;21.05;13.77;;;11.40;70.60;;;;;;5094472;28;20028;-16
2023/03/14 01:37:22;;;;;;;20.70;12.98;;;11.40;72.70;;;;;;5076537;28;20390;-16
2023/03/14 01:39:48;;;;;;;21.42;13.05;;;11.50;70.90;;;;;;5094974;28;20463;-17
2023/03/14 01:42:15;;;;;;;23.15;12.95;;;11.40;71.20;;;;;;5094915;28;20020;-16
2023/03/14 01:44:56;;;;;;;19.25;11.25;;;11.40;72.00;;;;;;5094378;28;20030;-17
2023/03/14 01:47:22;;;;;;;20.77;13.90;;;11.40;71.10;;;;;;5094835;28;20024;-17
2023/03/14 01:50:06;;;;;;;22.75;13.63;;;11.40;72.30;;;;;;5094435;28;20028;-16
2023/03/14 01:52:34;;;;;;;;;;;11.40;73.20;;;;;;5094508;28;20383;-16
2023/03/14 01:55:19;;;;;;;20.73;11.80;;;11.30;74.40;;;;;;5094409;28;19965;-17
2023/03/14 01:57:47;;;;;;;;;;;11.40;72.10;;;;;;5094682;28;20131;-17
2023/03/14 02:00:16;;;;;;;18.70;10.88;;;11.30;72.90;;;;;;5094444;28;19911;-17
2023/03/14 02:02:47;;;;;;;18.38;11.43;;;11.30;72.30;;;;;;5148001;22;20470;-14
2023/03/14 02:05:18;;;;;;;19.42;12.30;;;11.30;73.00;;;;;;5093411;28;20032;-15
2023/03/14 02:07:56;;;;;;;22.45;13.10;;;11.30;73.50;;;;;;5076561;28;20390;-16
2023/03/14 02:10:25;;;;;;;22.73;13.60;;;11.20;72.30;;;;;;5094399;28;20028;-15
2023/03/14 02:12:54;;;;;;;20.45;12.77;;;11.20;72.40;;;;;;5094363;28;20031;-15
2023/03/14 02:15:20;;;;;;;16.67;10.77;;;11.20;72.60;;;;;;5094176;28;20020;-15
2023/03/14 02:17:47;;;;;;;19.98;11.65;;;11.20;73.10;;;;;;5165165;22;20106;-16
2023/03/14 02:20:33;;;;;;;20.50;12.27;;;11.20;72.70;;;;;;5074101;28;20082;-15
2023/03/14 02:23:00;;;;;;;20.55;11.82;;;11.20;73.00;;;;;;5073751;28;20135;-15
2023/03/14 02:25:51;;;;;;;25.60;12.15;;;11.20;74.70;;;;;;5073902;28;20025;-15
2023/03/14 02:28:17;;;;;;;20.77;12.95;;;11.10;74.50;;;;;;5073620;28;20024;-15
2023/03/14 02:30:44;;;;;;;16.88;10.07;;;11.10;74.10;;;;;;5073143;28;20441;-15
2023/03/14 02:33:13;;;;;;;18.95;11.80;;;11.10;74.00;;;;;;5073450;28;20482;-14
2023/03/14 02:35:53;;;;;;;19.58;11.43;;;11.10;75.40;;;;;;5073800;28;20027;-16
2023/03/14 02:38:24;;;;;;;15.80;9.82;;;11.10;74.60;;;;;;5073687;28;20487;-15
2023/03/14 02:40:50;;;;;;;21.50;11.85;;;11.10;74.40;;;;;;5073109;28;20071;-16
2023/03/14 02:43:16;;;;;;;17.00;10.10;;;11.20;74.40;;;;;;5073604;28;20024;-15
2023/03/14 02:45:46;;;;;;;17.05;10.15;;;11.10;73.60;;;;;;5073505;28;20111;-14
2023/03/14 02:48:16;;;;;;;15.52;9.75;;;11.20;73.30;;;;;;5073208;28;20496;-13
2023/03/14 02:50:45;;;;;;;15.93;9.88;;;11.20;73.40;;;;;;5072908;28;20411;-16
2023/03/14 02:53:15;;;;;;;17.75;10.32;;;11.30;73.20;;;;;;5073318;28;20020;-16
2023/03/14 02:55:45;;;;;;;14.35;9.32;;;11.30;73.70;;;;;;5073325;28;20028;-15
2023/03/14 02:58:12;;;;;;;19.20;9.88;;;11.30;73.30;;;;;;5073252;28;20027;-17
2023/03/14 03:00:38;;;;;;;15.05;9.20;;;11.30;74.40;;;;;;5073072;28;20021;-17
2023/03/14 03:03:05;;;;;;;19.48;9.75;;;11.30;74.30;;;;;;5072364;28;20040;-16
2023/03/14 03:05:32;;;;;;;18.98;11.05;;;11.30;74.60;;;;;;5072962;28;20067;-16
2023/03/14 03:07:58;;;;;;;18.50;9.15;;;11.30;74.50;;;;;;5073116;28;20036;-15
2023/03/14 03:10:24;;;;;;;15.85;8.20;;;11.30;74.10;;;;;;5073008;28;20032;-16
2023/03/14 03:12:51;;;;;;;14.57;8.93;;;11.20;73.70;;;;;;5072592;28;20028;-17
2023/03/14 03:15:17;;;;;;;13.98;8.05;;;11.20;74.60;;;;;;5072696;28;20392;-18
2023/03/14 03:17:43;;;;;;;13.80;7.70;;;11.20;73.80;;;;;;5058743;28;20441;-16
2023/03/14 03:20:09;;;;;;;12.30;7.78;;;11.30;74.20;;;;;;5052751;28;20148;-16
2023/03/14 03:22:37;;;;;;;13.88;8.52;;;11.30;73.90;;;;;;5052718;28;20098;-15
2023/03/14 03:25:07;;;;;;;18.17;9.00;;;11.30;75.30;;;;;;5052728;28;20090;-17
2023/03/14 03:27:35;;;;;;;16.02;8.07;;;11.30;74.80;;;;;;5052562;28;20120;-15
2023/03/14 03:30:01;;;;;;;18.33;9.18;;;11.30;74.10;;;;;;5052606;28;20483;-16
2023/03/14 03:32:27;;;;;;;15.90;8.02;;;11.30;73.70;;;;;;5052494;28;20029;-16
2023/03/14 03:34:53;;;;;;;13.73;8.98;;;11.30;74.10;;;;;;5052282;28;20060;-16
2023/03/14 03:37:19;;;;;;;15.40;9.00;;;11.30;74.20;;;;;;5052741;28;20110;-17
2023/03/14 03:39:45;;;;;;;15.43;9.52;;;11.30;74.20;;;;;;5150498;22;20245;-18
2023/03/14 03:42:11;;;;;;;17.50;10.48;;;11.30;74.20;;;;;;5092801;28;20116;-15
2023/03/14 03:44:37;;;;;;;19.00;10.40;;;11.30;74.50;;;;;;5092525;28;20020;-15
2023/03/14 03:47:03;;;;;;;17.58;9.30;;;11.30;74.80;;;;;;5092408;28;20020;-17
2023/03/14 03:49:32;;;;;;;17.58;9.98;;;11.30;74.00;;;;;;5092485;28;20425;-15
2023/03/14 03:51:58;;;;;;;18.92;10.73;;;11.40;74.30;;;;;;5177160;22;20458;-17
2023/03/14 03:54:25;;;;;;;16.83;10.05;;;11.40;74.20;;;;;;5092817;28;20036;-15
2023/03/14 03:56:51;;;;;;;17.00;9.60;;;11.40;74.50;;;;;;5092656;28;20075;-17
2023/03/14 03:59:17;;;;;;;18.02;9.52;;;11.40;74.10;;;;;;5074375;28;20020;-16
2023/03/14 04:01:47;;;;;;;15.30;9.10;;;11.40;74.00;;;;;;5092699;28;20016;-17
2023/03/14 04:04:13;;;;;;;16.13;9.95;;;11.40;73.80;;;;;;5092415;28;20028;-17
2023/03/14 04:06:41;;;;;;;17.73;9.68;;;11.40;74.00;;;;;;5092475;28;20100;-15
2023/03/14 04:09:11;;;;;;;16.42;9.70;;;11.30;73.80;;;;;;5092547;28;20055;-16
2023/03/14 04:11:37;;;;;;;18.70;9.45;;;11.30;73.90;;;;;;5092771;28;20127;-15
2023/03/14 04:14:04;;;;;;;20.25;10.13;;;11.40;73.60;;;;;;5092893;28;20048;-15
2023/03/14 04:16:31;;;;;;;16.75;9.52;;;11.40;73.40;;;;;;5096476;28;20043;-16
2023/03/14 04:18:57;;;;;;;15.38;9.05;;;11.40;73.40;;;;;;5096164;28;20032;-17
2023/03/14 04:21:24;;;;;;;15.35;8.75;;;11.40;73.60;;;;;;5096469;28;20493;-17
2023/03/14 04:23:50;;;;;;;15.30;8.82;;;11.40;73.60;;;;;;5096652;28;20506;-17
2023/03/14 04:26:16;;;;;;;14.32;8.70;;;11.40;73.30;;;;;;5180594;22;20063;-14
2023/03/14 04:28:42;;;;;;;17.40;9.40;;;11.30;74.40;;;;;;5096134;28;20024;-16
2023/03/14 04:31:14;;;;;;;13.85;7.95;;;11.20;74.20;;;;;;5096051;28;20028;-16
2023/03/14 04:33:40;;;;;;;17.73;8.93;;;11.20;74.70;;;;;;5096477;28;20020;-15
2023/03/14 04:36:08;;;;;;;14.52;9.10;;;11.10;74.80;;;;;;5096252;28;20024;-16
2023/03/14 04:38:34;;;;;;;17.65;8.68;;;11.00;75.00;;;;;;5096033;28;20032;-15
2023/03/14 04:41:00;;;;;;;18.25;9.35;;;10.90;75.50;;;;;;5095655;28;20026;-15
2023/03/14 04:43:26;;;;;;;16.50;8.23;;;10.90;75.20;;;;;;5095907;28;20059;-15
2023/03/14 04:45:57;;;;;;;14.55;8.48;;;10.90;75.40;;;;;;5095877;28;20394;-16
2023/03/14 04:48:23;;;;;;;15.63;8.40;;;10.90;75.50;;;;;;5095880;28;20039;-15
2023/03/14 04:50:49;;;;;;;13.93;8.38;;;10.90;75.20;;;;;;5095474;28;20475;-17
2023/03/14 04:53:17;;;;;;;17.13;8.57;;;10.90;74.90;;;;;;5095691;28;20043;-17
2023/03/14 04:55:51;;;;;;;16.75;8.80;;;10.90;75.20;;;;;;5095563;28;20028;-17
2023/03/14 04:58:18;;;;;;;16.27;8.60;;;10.90;75.10;;;;;;5095818;28;20447;-16
2023/03/14 05:00:44;;;;;;;12.80;7.43;;;11.00;74.30;;;;;;5095394;28;20024;-17
2023/03/14 05:03:10;;;;;;;13.07;7.38;;;11.00;74.30;;;;;;5158281;22;20053;-20
2023/03/14 05:05:36;;;;;;;15.48;8.20;;;11.00;74.10;;;;;;5075264;28;20119;-19
2023/03/14 05:08:03;;;;;;;15.70;7.55;;;11.10;74.10;;;;;;5134939;22;20066;-18
2023/03/14 05:10:29;;;;;;;16.23;8.48;;;11.10;74.00;;;;;;5095362;28;20031;-15
2023/03/14 05:12:54;;;;;;;15.75;8.55;;;11.10;73.80;;;;;;5095161;28;20020;-15
2023/03/14 05:15:20;;;;;;;17.83;8.68;;;11.10;74.00;;;;;;5095311;28;20031;-15
2023/03/14 05:17:46;;;;;;;14.50;8.30;;;11.10;74.40;;;;;;5095468;28;20052;-17
2023/03/14 05:20:13;;;;;;;17.35;9.10;;;11.00;74.00;;;;;;5148134;22;20060;-18
2023/03/14 05:22:39;;;;;;;14.80;7.97;;;11.00;74.00;;;;;;5074779;28;20020;-20
2023/03/14 05:25:06;;;;;;;17.77;8.65;;;11.10;73.80;;;;;;5144415;22;20158;-16
2023/03/14 05:27:33;;;;;;;15.25;9.00;;;11.10;74.30;;;;;;5094223;28;20107;-16
2023/03/14 05:29:59;;;;;;;14.55;8.93;;;11.10;73.90;;;;;;5147913;22;20106;-19
2023/03/14 05:32:25;;;;;;;19.52;9.63;;;11.00;73.90;;;;;;5056595;28;20028;-19
2023/03/14 05:34:51;;;;;;;14.88;8.60;;;11.00;73.70;;;;;;5142531;22;20392;-17
2023/03/14 05:37:17;;;;;;;16.45;8.55;;;11.10;73.50;;;;;;5095123;28;20016;-17
2023/03/14 05:39:43;;;;;;;13.55;8.32;;;11.10;73.40;;;;;;5094671;28;20368;-16
2023/03/14 05:42:09;;;;;;;14.75;8.63;;;11.10;73.40;;;;;;5174658;22;20079;-16
2023/03/14 05:44:35;;;;;;;17.42;8.73;;;11.10;73.40;;;;;;5074555;28;20078;-16
2023/03/14 05:47:01;;;;;;;14.95;8.57;;;11.10;73.40;;;;;;5074233;28;20036;-16
2023/03/14 05:49:27;;;;;;;16.27;8.98;;;11.10;73.30;;;;;;5056373;28;20472;-15
2023/03/14 05:51:53;;;;;;;13.98;8.25;;;11.10;73.30;;;;;;5074288;28;20040;-16
2023/03/14 05:54:18;;;;;;;15.75;8.73;;;11.10;73.20;;;;;;5074636;28;20020;-15
2023/03/14 05:56:44;;;;;;;14.13;8.48;;;11.10;73.20;;;;;;5163844;22;20446;-15
2023/03/14 05:59:10;;;;;;;20.60;9.38;;;11.10;73.30;;;;;;5056362;28;20070;-15
2023/03/14 06:01:36;;;;;;;17.38;9.88;;;11.00;73.40;;;;;;5074559;28;20024;-15
2023/03/14 06:04:02;;;;;;;18.20;9.52;;;11.00;74.00;;;;;;5056296;28;20382;-15
2023/03/14 06:06:28;;;;;;;16.42;8.88;;;11.00;73.40;;;;;;5074388;28;20028;-15
2023/03/14 06:08:54;;;;;;;14.88;8.13;;;10.90;73.60;;;;;;5073907;28;20434;-18
2023/03/14 06:11:20;;;;;;;14.85;8.35;;;10.90;73.40;;;;;;5055837;28;20112;-17
2023/03/14 06:13:46;;;;;;;16.80;8.15;;;10.90;74.40;;;;;;5073947;28;20040;-17
2023/03/14 06:16:12;;;;;;;13.15;7.70;;;10.90;73.80;;;;;;5056176;28;20082;-15
2023/03/14 06:18:38;;;;;;;13.60;8.55;;;10.90;74.10;;;;;;5073754;28;20028;-16
2023/03/14 06:21:04;;;;;;;17.13;8.38;;;10.90;74.70;;;;;;5073830;28;20019;-18
2023/03/14 06:23:31;;;;;;;14.85;9.07;;;10.90;74.50;;;;;;5074098;28;20501;-16
2023/03/14 06:25:57;;;;;;;17.98;8.15;;;10.90;75.40;;;;;;5073709;28;20489;-16
2023/03/14 06:28:23;;;;;;;18.05;8.85;;;10.90;75.10;;;;;;5073936;28;20090;-15
2023/03/14 06:30:49;;;;;;;16.27;9.32;;;10.90;75.70;;;;;;5073700;28;20097;-18
2023/03/14 06:33:15;;;;;;;18.60;9.38;;;10.90;76.20;;;;;;5073498;28;20483;-17
2023/03/14 06:35:41;;;;;;;15.77;8.07;;;10.90;76.50;;;;;;5055565;28;20025;-15
2023/03/14 06:38:07;;;;;;;15.07;8.65;;;10.90;76.30;;;;;;5073384;28;20119;-17
2023/03/14 06:40:33;;;;;;;18.20;8.85;;;10.90;75.90;;;;;;5073284;28;20499;-16
2023/03/14 06:42:59;;;;;;;17.67;8.68;;;10.90;76.30;;;;;;5055127;28;20079;-17
2023/03/14 06:45:25;;;;;;;15.15;8.20;;;10.90;75.80;;;;;;5055195;28;20109;-16
2023/03/14 06:47:51;;;;;;;18.40;9.27;;;10.80;76.10;;;;;;5073469;28;20035;-18
2023/03/14 06:50:17;;;;;;;14.07;7.93;;;10.70;77.30;;;;;;5055462;28;20545;-19
2023/03/14 06:52:47;;;;;;;18.10;8.90;;;10.60;78.40;;;;;;5072893;28;20392;-20
2023/03/14 06:55:14;;;;;;;15.48;8.25;;;10.50;78.60;;;;;;5073165;28;20036;-18
2023/03/14 06:57:41;;;;;;;18.88;8.65;;;10.50;78.70;;;;;;5073307;28;20506;-18
2023/03/14 07:00:08;;;;;;;17.02;8.93;;;10.40;78.60;;;;;;5073379;28;20024;-17
2023/03/14 07:02:34;;;;;;;16.10;7.93;;;10.30;79.70;;;;;;5073250;28;20058;-16
2023/03/14 07:05:00;;;;;;;16.10;8.43;;;10.30;80.50;;;;;;5072689;28;20046;-17
2023/03/14 07:07:27;;;;;;;23.58;9.13;;;10.30;79.80;;;;;;5072854;28;20107;-16
2023/03/14 07:09:53;;;;;;;18.08;8.65;;;10.20;79.70;;;;;;5072744;28;20032;-16
2023/03/14 07:12:19;;;;;;;18.90;9.93;;;10.20;81.00;;;;;;5072763;28;20485;-18
2023/03/14 07:14:45;;;;;;;18.13;9.52;;;10.10;82.40;;;;;;5072635;28;20029;-16
2023/03/14 07:17:11;;;;;;;23.35;9.75;;;10.10;82.40;;;;;;5072734;28;20540;-15
2023/03/14 07:19:37;;;;;;;21.35;10.65;;;10.10;81.60;;;;;;5072928;28;20020;-16
2023/03/14 07:22:04;;;;;;;18.20;9.32;;;10.10;81.70;;;;;;5072638;28;20021;-14
2023/03/14 07:24:30;;;;;;;17.98;9.48;;;10.10;81.50;;;;;;5054713;28;20048;-15
2023/03/14 07:26:56;;;;;;;15.55;8.95;;;10.20;81.20;;;;;;5072374;28;20025;-15
2023/03/14 07:29:22;;;;;;;15.68;8.75;;;10.20;80.70;;;;;;5072892;28;20039;-15
2023/03/14 07:31:48;;;;;;;14.80;9.38;;;10.20;82.10;;;;;;5072729;28;20424;-14
2023/03/14 07:34:14;;;;;;;17.05;9.32;;;10.20;80.50;;;;;;5072802;28;20029;-16
2023/03/14 07:36:40;;;;;;;18.90;9.43;;;10.30;80.70;;;;;;5072207;28;20206;-16
2023/03/14 07:39:06;;;;;;;23.42;10.75;;;10.30;80.70;;;;;;5072456;28;20027;-15
2023/03/14 07:44:02;;;;;;;17.75;10.15;;;10.40;82.80;;;;;;5048612;28;20060;-15
2023/03/14 07:46:28;;;;;;;17.92;10.02;;;10.50;83.70;;;;;;5052456;28;20025;-16
2023/03/14 07:48:54;;;;;;;22.40;11.50;;;10.50;83.30;;;;;;5051564;28;20033;-15
2023/03/14 07:51:20;;;;;;;24.00;10.23;;;10.70;83.20;;;;;;5052180;28;20105;-16
2023/03/14 07:53:46;;;;;;;17.27;9.82;;;10.70;83.80;;;;;;5052269;28;20425;-16
2023/03/14 07:56:12;;;;;;;18.98;9.55;;;10.70;84.00;;;;;;5137838;22;20139;-19
2023/03/14 07:58:38;;;;;;;21.05;10.38;;;10.70;82.80;;;;;;5072301;28;20043;-22
2023/03/14 08:01:04;;;;;;;17.50;9.52;;;10.80;82.60;;;;;;5037529;28;20383;-19
2023/03/14 08:03:29;;;;;;;17.83;10.15;;;10.90;82.40;;;;;;5072072;28;20021;-20
2023/03/14 08:05:55;;;;;;;16.35;9.75;;;10.90;84.10;;;;;;5072423;28;20028;-20
2023/03/14 08:08:21;;;;;;;18.52;9.35;;;10.80;83.50;;;;;;5072150;28;20425;-19
2023/03/14 08:13:16;;;;;;;18.70;9.85;;;10.90;83.20;;;;;;5068462;28;20049;-15
2023/03/14 08:15:47;;;;;;;20.35;9.75;;;11.00;84.00;;;;;;5072459;28;20028;-15
2023/03/14 08:18:13;;;;;;;21.38;10.00;;;11.10;82.30;;;;;;5072368;28;20035;-17
2023/03/14 08:20:38;;;;;;;18.42;10.07;;;11.20;82.40;;;;;;5070585;28;20017;-15
2023/03/14 08:23:05;;;;;;;21.67;9.93;;;11.30;82.50;;;;;;5072642;28;20025;-15
2023/03/14 08:25:31;;;;;;;19.70;9.60;;;11.30;83.20;;;;;;5072649;28;20543;-15
2023/03/14 08:27:57;;;;;;;16.55;10.20;;;11.30;82.30;;;;;;5072418;28;20025;-16
2023/03/14 08:30:23;;;;;;;20.27;9.88;;;11.40;82.70;;;;;;5072295;28;20034;-13
2023/03/14 08:32:48;;;;;;;19.20;9.98;;;11.50;82.50;;;;;;5072189;28;20029;-14
2023/03/14 08:35:15;;;;;;;18.42;10.35;;;11.50;82.10;;;;;;5072263;28;20028;-14
2023/03/14 08:37:41;;;;;;;22.05;10.90;;;11.60;82.40;;;;;;5072176;28;20475;-13
2023/03/14 08:40:08;;;;;;;18.08;10.45;;;11.70;82.70;;;;;;5072549;28;20027;-10
2023/03/14 08:42:34;;;;;;;19.30;10.60;;;11.80;82.30;;;;;;5072339;28;20032;-16
2023/03/14 08:45:00;;;;;;;17.48;10.25;;;11.90;82.80;;;;;;5072016;28;20036;-14
